createdAt,value
2023-05-06T00:03:02.482Z,2.80
2023-05-06T00:07:06.980Z,2.70
2023-05-06T00:11:09.818Z,2.75
2023-05-06T00:15:12.781Z,3.25
2023-05-06T00:19:15.725Z,2.50
2023-05-06T00:23:19.912Z,2.70
2023-05-06T00:27:22.783Z,2.33
2023-05-06T00:31:26.027Z,3.33
2023-05-06T00:35:28.948Z,2.80
2023-05-06T00:39:33.522Z,3.22
2023-05-06T00:43:36.334Z,2.92
2023-05-06T00:47:39.328Z,2.95
2023-05-06T00:51:42.217Z,2.95
2023-05-06T00:55:46.548Z,3.33
2023-05-06T00:59:49.414Z,3.30
2023-05-06T01:03:57.162Z,2.80
2023-05-06T01:08:07.701Z,3.03
2023-05-06T01:12:21.946Z,3.70
2023-05-06T01:16:29.561Z,3.05
2023-05-06T01:20:34.197Z,3.60
2023-05-06T01:24:39.206Z,3.08
2023-05-06T01:28:42.011Z,3.75
2023-05-06T01:32:54.718Z,3.40
2023-05-06T01:37:08.000Z,3.47
2023-05-06T01:41:16.374Z,3.67
2023-05-06T01:45:20.874Z,3.42
2023-05-06T01:49:26.101Z,3.50
2023-05-06T01:53:28.907Z,3.75
2023-05-06T01:57:33.162Z,3.75
2023-05-06T02:01:36.126Z,3.95
2023-05-06T02:05:38.988Z,3.70
2023-05-06T02:09:42.585Z,3.78
2023-05-06T02:13:46.854Z,3.60
2023-05-06T02:17:49.807Z,3.60
2023-05-06T02:21:52.779Z,4.55
2023-05-06T02:25:55.647Z,4.00
2023-05-06T02:29:59.984Z,4.57
2023-05-06T02:34:02.826Z,4.82
2023-05-06T02:38:05.660Z,4.50
2023-05-06T02:42:10.654Z,4.32
2023-05-06T02:46:16.216Z,4.55
2023-05-06T02:50:19.372Z,4.50
2023-05-06T02:54:22.231Z,4.40
2023-05-06T02:58:26.182Z,4.15
2023-05-06T03:02:30.539Z,4.20
2023-05-06T03:06:33.375Z,4.30
2023-05-06T03:10:36.430Z,4.47
2023-05-06T03:14:39.466Z,4.43
2023-05-06T03:18:43.784Z,4.03
2023-05-06T03:22:47.460Z,3.95
2023-05-06T03:26:50.569Z,4.13
2023-05-06T03:30:53.609Z,4.32
2023-05-06T03:34:57.868Z,4.32
2023-05-06T03:39:00.876Z,4.85
2023-05-06T03:43:05.202Z,4.45
2023-05-06T03:47:08.930Z,4.20
2023-05-06T03:51:14.915Z,4.20
2023-05-06T03:55:18.341Z,4.28
2023-05-06T03:59:21.510Z,4.07
2023-05-06T04:03:24.479Z,4.10
2023-05-06T04:07:29.507Z,4.50
2023-05-06T04:11:32.275Z,3.80
2023-05-06T04:15:37.623Z,4.35
2023-05-06T04:19:44.570Z,4.13
2023-05-06T04:23:48.899Z,4.45
2023-05-06T04:27:56.459Z,4.18
2023-05-06T04:31:59.988Z,4.70
2023-05-06T04:36:05.674Z,4.60
2023-05-06T04:40:13.644Z,4.75
2023-05-06T04:44:19.418Z,4.88
2023-05-06T04:48:24.035Z,4.75
2023-05-06T04:52:29.811Z,6.35
2023-05-06T04:56:34.498Z,4.57
2023-05-06T05:00:37.323Z,3.78
2023-05-06T05:04:41.264Z,4.00
2023-05-06T05:08:44.617Z,4.20
2023-05-06T05:12:49.397Z,3.78
2023-05-06T05:16:52.815Z,3.90
2023-05-06T05:20:55.759Z,3.47
2023-05-06T05:24:59.166Z,3.85
2023-05-06T05:29:03.454Z,3.92
2023-05-06T05:33:07.997Z,4.13
2023-05-06T05:37:11.350Z,3.97
2023-05-06T05:41:16.807Z,3.50
2023-05-06T05:45:22.480Z,3.38
2023-05-06T05:49:26.413Z,3.10
2023-05-06T05:53:30.048Z,3.15
2023-05-06T05:57:33.023Z,3.58
2023-05-06T06:01:37.281Z,3.47
2023-05-06T06:05:43.457Z,2.97
2023-05-06T06:09:48.847Z,3.53
2023-05-06T06:13:52.540Z,3.63
2023-05-06T06:17:57.213Z,3.88
2023-05-06T06:22:02.308Z,3.70
2023-05-06T06:30:13.758Z,3.55
2023-05-06T06:34:17.950Z,5.03
2023-05-06T06:38:20.710Z,4.68
2023-05-06T06:42:23.578Z,4.43
2023-05-06T06:46:36.483Z,3.92
2023-05-06T06:50:40.639Z,4.57
2023-05-06T06:54:43.593Z,4.70
2023-05-06T06:58:46.532Z,4.47
2023-05-06T07:02:49.435Z,4.95
2023-05-06T07:06:53.671Z,4.75
2023-05-06T07:10:56.717Z,4.78
2023-05-06T07:14:59.521Z,4.65
2023-05-06T07:19:02.577Z,5.28
2023-05-06T07:23:06.766Z,4.78
2023-05-06T07:27:09.642Z,5.30
2023-05-06T07:31:12.527Z,5.90
2023-05-06T07:35:15.426Z,4.40
2023-05-06T07:39:19.594Z,4.30
2023-05-06T07:43:23.324Z,4.22
2023-05-06T07:47:31.577Z,3.67
2023-05-06T07:51:34.592Z,3.03
2023-05-06T07:55:38.748Z,3.47
2023-05-06T07:59:41.768Z,3.88
2023-05-06T08:03:44.705Z,4.00
2023-05-06T08:07:47.740Z,4.40
2023-05-06T08:11:52.111Z,4.55
2023-05-06T08:15:55.218Z,3.67
2023-05-06T08:19:58.319Z,3.22
2023-05-06T08:24:01.199Z,2.60
2023-05-06T08:28:07.432Z,2.75
2023-05-06T08:32:10.298Z,2.67
2023-05-06T08:36:13.367Z,3.20
2023-05-06T08:40:20.558Z,2.88
2023-05-06T08:44:25.648Z,2.97
2023-05-06T08:48:29.918Z,3.15
2023-05-06T08:52:33.269Z,2.92
2023-05-06T08:56:37.635Z,2.65
2023-05-06T09:00:42.132Z,2.72
2023-05-06T09:04:46.082Z,2.60
2023-05-06T09:08:48.836Z,2.42
2023-05-06T09:12:55.043Z,2.10
2023-05-06T09:16:59.294Z,2.80
2023-05-06T09:21:05.498Z,3.08
2023-05-06T09:25:09.688Z,2.45
2023-05-06T09:29:12.708Z,2.50
2023-05-06T09:33:17.076Z,2.70
2023-05-06T09:37:20.948Z,2.42
2023-05-06T09:41:25.517Z,2.50
2023-05-06T09:45:29.574Z,2.88
2023-05-06T09:49:34.599Z,2.60
2023-05-06T09:53:38.254Z,2.63
2023-05-06T09:57:42.557Z,2.70
2023-05-06T10:01:45.708Z,2.80
2023-05-06T10:05:50.795Z,2.53
2023-05-06T10:09:55.559Z,2.70
2023-05-06T10:14:00.073Z,2.40
2023-05-06T10:18:04.280Z,2.35
2023-05-06T10:22:15.955Z,2.50
2023-05-06T10:26:20.837Z,2.50
2023-05-06T10:30:24.843Z,2.60
2023-05-06T10:34:30.301Z,2.65
2023-05-06T10:38:37.307Z,2.30
2023-05-06T10:42:40.839Z,2.30
2023-05-06T10:47:00.653Z,2.60
2023-05-06T10:51:28.344Z,2.53
2023-05-06T10:55:33.949Z,2.70
2023-05-06T10:59:37.712Z,2.47
2023-05-06T11:03:43.613Z,2.15
2023-05-06T11:07:46.623Z,1.85
2023-05-06T11:12:02.140Z,2.10
2023-05-06T11:20:22.942Z,1.98
2023-05-06T11:24:27.979Z,1.90
2023-05-06T11:28:33.141Z,2.00
2023-05-06T11:32:36.152Z,2.47
2023-05-06T11:36:47.153Z,2.00
2023-05-06T11:40:50.341Z,2.17
2023-05-06T11:44:56.789Z,1.98
2023-05-06T11:48:59.898Z,1.60
2023-05-06T11:53:03.391Z,1.80
2023-05-06T11:57:06.434Z,1.58
2023-05-06T12:01:10.915Z,1.60
2023-05-06T12:05:13.868Z,1.63
2023-05-06T12:09:16.933Z,1.98
2023-05-06T12:13:20.238Z,1.85
2023-05-06T12:17:24.923Z,2.42
2023-05-06T12:21:28.473Z,1.90
2023-05-06T12:25:31.435Z,1.60
2023-05-06T12:29:34.208Z,1.50
2023-05-06T12:33:48.824Z,1.48
2023-05-06T12:37:51.645Z,1.60
2023-05-06T12:41:54.484Z,1.52
2023-05-06T12:46:05.143Z,1.80
2023-05-06T12:50:10.538Z,1.60
2023-05-06T12:54:31.567Z,1.60
2023-05-06T12:58:37.629Z,1.80
2023-05-06T13:02:41.148Z,1.70
2023-05-06T13:06:45.448Z,1.80
2023-05-06T13:10:48.331Z,1.50
2023-05-06T13:14:51.160Z,2.20
2023-05-06T13:18:53.999Z,1.85
2023-05-06T13:22:58.213Z,1.75
2023-05-06T13:27:01.439Z,1.58
2023-05-06T13:31:04.807Z,1.50
2023-05-06T13:35:08.405Z,1.40
2023-05-06T13:39:12.935Z,1.70
2023-05-06T13:43:16.487Z,1.38
2023-05-06T13:47:19.417Z,1.30
2023-05-06T13:51:22.345Z,1.20
2023-05-06T13:55:26.691Z,2.05
2023-05-06T13:59:29.461Z,1.48
2023-05-06T14:03:32.755Z,1.40
2023-05-06T14:07:35.559Z,1.50
2023-05-06T14:11:39.768Z,1.55
2023-05-06T14:15:42.621Z,1.70
2023-05-06T14:19:45.904Z,1.60
2023-05-06T14:23:48.722Z,1.40
2023-05-06T14:27:52.885Z,1.55
2023-05-06T14:31:55.856Z,1.50
2023-05-06T14:35:58.702Z,1.45
2023-05-06T14:40:01.479Z,1.13
2023-05-06T14:44:06.125Z,1.48
2023-05-06T14:48:08.996Z,1.80
2023-05-06T14:52:11.815Z,1.40
2023-05-06T14:56:14.621Z,1.42
2023-05-06T15:00:20.531Z,1.40
2023-05-06T15:04:23.433Z,1.35
2023-05-06T15:08:26.328Z,1.17
2023-05-06T15:12:29.318Z,1.10
2023-05-06T15:16:33.580Z,1.10
2023-05-06T15:20:37.497Z,1.50
2023-05-06T15:24:40.526Z,1.77
2023-05-06T15:28:43.396Z,1.10
2023-05-06T15:32:49.010Z,1.48
2023-05-06T15:36:53.602Z,1.05
2023-05-06T15:40:56.459Z,1.15
2023-05-06T15:44:59.475Z,1.40
2023-05-06T15:49:29.488Z,1.35
2023-05-06T15:53:26.798Z,1.50
2023-05-06T15:57:31.147Z,1.60
2023-05-06T16:02:08.440Z,1.35
2023-05-06T16:06:00.310Z,1.80
2023-05-06T16:10:03.362Z,1.50
2023-05-06T16:14:06.217Z,1.30
2023-05-06T16:18:09.161Z,1.20
2023-05-06T16:22:13.349Z,1.50
2023-05-06T16:26:16.672Z,1.17
2023-05-06T16:30:19.553Z,1.60
2023-05-06T16:34:22.328Z,1.45
2023-05-06T16:38:26.472Z,1.73
2023-05-06T16:42:29.289Z,1.23
2023-05-06T16:46:33.145Z,1.50
2023-05-06T16:50:35.899Z,1.67
2023-05-06T16:54:40.013Z,1.58
2023-05-06T16:58:43.377Z,1.55
2023-05-06T17:02:46.212Z,2.20
2023-05-06T17:06:49.016Z,1.80
2023-05-06T17:10:53.211Z,1.52
2023-05-06T17:14:56.057Z,1.90
2023-05-06T17:18:58.856Z,2.08
2023-05-06T17:23:01.679Z,2.30
2023-05-06T17:27:05.913Z,1.98
2023-05-06T17:31:09.205Z,1.90
2023-05-06T17:35:12.123Z,2.28
2023-05-06T17:39:15.224Z,2.08
2023-05-06T17:43:19.391Z,2.00
2023-05-06T17:47:22.801Z,2.25
2023-05-06T17:51:26.706Z,2.20
2023-05-06T17:55:29.527Z,1.40
2023-05-06T17:59:33.765Z,1.70
2023-05-06T18:03:36.731Z,1.95
2023-05-06T18:07:39.762Z,1.88
2023-05-06T18:11:42.640Z,1.80
2023-05-06T18:15:46.795Z,2.08
2023-05-06T18:19:49.796Z,1.92
2023-05-06T18:23:58.689Z,2.33
2023-05-06T18:28:05.590Z,2.30
2023-05-06T18:32:09.944Z,2.40
2023-05-06T18:36:13.426Z,2.30
2023-05-06T18:40:16.439Z,2.30
2023-05-06T18:44:19.221Z,2.08
2023-05-06T18:48:23.464Z,3.42
2023-05-06T18:52:26.315Z,4.00
2023-05-06T18:56:29.150Z,3.33
2023-05-06T19:00:32.288Z,3.78
2023-05-06T19:04:36.783Z,3.67
2023-05-06T19:08:39.771Z,3.45
2023-05-06T19:12:42.656Z,4.07
2023-05-06T19:16:45.532Z,3.90
2023-05-06T19:20:49.674Z,4.43
2023-05-06T19:24:52.786Z,5.50
2023-05-06T19:28:55.731Z,5.80
2023-05-06T19:32:59.005Z,8.45
2023-05-06T19:37:03.270Z,6.78
2023-05-06T19:41:07.134Z,7.22
2023-05-06T19:45:10.790Z,7.13
2023-05-06T19:49:13.796Z,7.57
2023-05-06T19:53:18.515Z,7.65
2023-05-06T19:57:21.361Z,7.32
2023-05-06T20:01:24.808Z,6.05
2023-05-06T20:05:29.598Z,6.72
2023-05-06T20:09:33.757Z,8.13
2023-05-06T20:13:36.580Z,7.00
2023-05-06T20:17:39.508Z,6.03
2023-05-06T20:21:42.365Z,5.97
2023-05-06T20:25:46.524Z,6.30
2023-05-06T20:29:51.550Z,5.22
2023-05-06T20:33:54.486Z,3.25
2023-05-06T20:37:57.249Z,4.65
2023-05-06T20:42:01.686Z,4.18
2023-05-06T20:46:05.411Z,3.70
2023-05-06T20:50:08.776Z,4.32
2023-05-06T20:54:11.554Z,5.20
2023-05-06T20:58:15.733Z,4.70
2023-05-06T21:02:18.563Z,4.65
2023-05-06T21:06:21.379Z,3.80
2023-05-06T21:10:24.225Z,4.05
2023-05-06T21:14:28.573Z,4.30
2023-05-06T21:18:31.498Z,4.47
2023-05-06T21:22:34.384Z,4.57
2023-05-06T21:26:37.328Z,4.20
2023-05-06T21:30:41.583Z,4.68
2023-05-06T21:34:44.520Z,5.05
2023-05-06T21:38:48.450Z,4.07
2023-05-06T21:42:51.305Z,4.28
2023-05-06T21:46:55.633Z,4.82
2023-05-06T21:51:00.280Z,4.53
2023-05-06T21:55:03.159Z,5.40
2023-05-06T21:59:07.818Z,5.07
2023-05-06T22:03:12.533Z,4.65
2023-05-06T22:07:16.420Z,4.47
2023-05-06T22:11:19.234Z,5.20
2023-05-06T22:15:22.006Z,5.30
2023-05-06T22:19:26.551Z,5.13
2023-05-06T22:23:29.382Z,4.90
2023-05-06T22:27:32.134Z,4.30
2023-05-06T22:31:34.983Z,4.38
2023-05-06T22:35:39.215Z,4.45
2023-05-06T22:39:42.104Z,4.68
2023-05-06T22:43:44.893Z,5.55
2023-05-06T22:47:47.670Z,4.80
2023-05-06T22:51:52.121Z,5.07
2023-05-06T22:55:55.007Z,4.40
2023-05-06T22:59:57.780Z,5.28
2023-05-06T23:04:00.800Z,4.35
2023-05-06T23:08:05.098Z,4.13
2023-05-06T23:12:08.009Z,4.32
2023-05-06T23:16:10.854Z,3.72
2023-05-06T23:20:13.775Z,4.05
2023-05-06T23:24:17.924Z,3.92
2023-05-06T23:28:20.944Z,3.67
2023-05-06T23:32:23.716Z,3.90
2023-05-06T23:36:27.250Z,3.50
2023-05-06T23:40:31.429Z,3.80
2023-05-06T23:44:34.239Z,3.40
2023-05-06T23:48:38.430Z,3.55
2023-05-06T23:52:41.237Z,3.90
2023-05-06T23:56:45.436Z,3.55
